GLO1946 SBSV-SBCF
Flight info
| Callsign | GLO1946 |
|---|---|
| Flight time | 1h 21m |
| Altitude | 38000 |
| Route | GILDO UZ21 OPTEB |
| Aircraft | B738/M-SDE2E3FGHIRWXY/LB1 |
Departure
| Time | 2026-04-30 18:45 |
|---|---|
| Airport | Deputado Luiz Eduardo Magalhães International Airport (SBSV) |
Arrival
| Time | 2026-04-30 20:06 |
|---|---|
| Airport | Tancredo Neves International Airport (SBCF) |
| Time | Latitude | Longitude | Altitude | Speed | Heading |
|---|---|---|---|---|---|
| 2026-04-30 18:07 | -12.91338 | -38.33271 | 43 ft | 0 kts | 173° |
| 2026-04-30 18:33 | -12.91325 | -38.33272 | 41 ft | 2 kts | 177° |
| 2026-04-30 18:33 | -12.91299 | -38.33271 | 39 ft | 2 kts | 196° |
| 2026-04-30 18:33 | -12.91289 | -38.33267 | 39 ft | 2 kts | 219° |
| 2026-04-30 18:34 | -12.91282 | -38.33259 | 41 ft | 2 kts | 243° |
| 2026-04-30 18:34 | -12.91277 | -38.33244 | 43 ft | 1 kts | 257° |
| 2026-04-30 18:34 | -12.91275 | -38.33238 | 43 ft | 1 kts | 258° |
| 2026-04-30 18:35 | -12.91275 | -38.33235 | 43 ft | 0 kts | 259° |
| 2026-04-30 18:39 | -12.91276 | -38.33240 | 43 ft | 2 kts | 259° |
| 2026-04-30 18:39 | -12.91280 | -38.33261 | 43 ft | 5 kts | 259° |
| 2026-04-30 18:39 | -12.91275 | -38.33298 | 43 ft | 6 kts | 308° |
| 2026-04-30 18:39 | -12.91239 | -38.33318 | 43 ft | 6 kts | 329° |
| 2026-04-30 18:40 | -12.91211 | -38.33347 | 43 ft | 6 kts | 302° |
| 2026-04-30 18:40 | -12.91193 | -38.33384 | 43 ft | 6 kts | 296° |
| 2026-04-30 18:40 | -12.91179 | -38.33431 | 42 ft | 8 kts | 273° |
| 2026-04-30 18:40 | -12.91190 | -38.33493 | 40 ft | 9 kts | 259° |
| 2026-04-30 18:41 | -12.91194 | -38.33557 | 42 ft | 8 kts | 288° |
| 2026-04-30 18:41 | -12.91150 | -38.33583 | 43 ft | 8 kts | 6° |
| 2026-04-30 18:41 | -12.91118 | -38.33550 | 43 ft | 4 kts | 76° |
| 2026-04-30 18:41 | -12.91115 | -38.33536 | 43 ft | 2 kts | 78° |
| 2026-04-30 18:42 | -12.91113 | -38.33526 | 43 ft | 1 kts | 78° |
| 2026-04-30 18:42 | -12.91050 | -38.33215 | 42 ft | 76 kts | 78° |
| 2026-04-30 18:42 | -12.90900 | -38.32464 | 51 ft | 135 kts | 78° |
| 2026-04-30 18:45 | -12.95265 | -38.28385 | 4288 ft | 271 kts | 240° |
| 2026-04-30 18:45 | -12.96186 | -38.30059 | 4922 ft | 276 kts | 236° |
| 2026-04-30 18:45 | -12.97240 | -38.31735 | 5541 ft | 283 kts | 234° |
| 2026-04-30 18:46 | -12.98345 | -38.33417 | 6240 ft | 286 kts | 234° |
| 2026-04-30 18:46 | -12.99472 | -38.35118 | 6916 ft | 289 kts | 234° |
| 2026-04-30 18:46 | -13.00612 | -38.36835 | 7600 ft | 293 kts | 234° |
| 2026-04-30 18:46 | -13.01767 | -38.38573 | 8282 ft | 297 kts | 234° |
| 2026-04-30 18:47 | -13.02780 | -38.40434 | 8984 ft | 304 kts | 252° |
| 2026-04-30 18:47 | -13.03238 | -38.42562 | 9635 ft | 309 kts | 259° |
| 2026-04-30 18:47 | -13.03625 | -38.44736 | 10099 ft | 310 kts | 259° |
| 2026-04-30 18:47 | -13.04011 | -38.46954 | 10577 ft | 321 kts | 259° |
| 2026-04-30 18:48 | -13.04409 | -38.49210 | 11054 ft | 331 kts | 259° |
| 2026-04-30 18:48 | -13.04833 | -38.51573 | 11540 ft | 341 kts | 259° |
| 2026-04-30 18:48 | -13.05275 | -38.54000 | 12034 ft | 350 kts | 259° |
| 2026-04-30 18:48 | -13.05730 | -38.56484 | 12530 ft | 358 kts | 259° |
| 2026-04-30 18:49 | -13.06199 | -38.59032 | 13017 ft | 366 kts | 259° |
| 2026-04-30 18:49 | -13.06679 | -38.61631 | 13542 ft | 374 kts | 259° |
| 2026-04-30 18:49 | -13.07164 | -38.64264 | 14124 ft | 377 kts | 259° |
| 2026-04-30 18:49 | -13.07654 | -38.66919 | 14697 ft | 380 kts | 259° |
| 2026-04-30 18:50 | -13.08148 | -38.69599 | 15278 ft | 384 kts | 259° |
| 2026-04-30 18:50 | -13.08652 | -38.72298 | 15852 ft | 387 kts | 257° |
| 2026-04-30 18:50 | -13.09588 | -38.74857 | 16375 ft | 389 kts | 238° |
| 2026-04-30 18:50 | -13.11024 | -38.77225 | 16974 ft | 392 kts | 236° |
| 2026-04-30 18:51 | -13.12513 | -38.79588 | 17534 ft | 396 kts | 235° |
| 2026-04-30 18:51 | -13.14019 | -38.81969 | 18074 ft | 400 kts | 235° |
| 2026-04-30 18:51 | -13.15532 | -38.84375 | 18561 ft | 404 kts | 236° |
| 2026-04-30 18:51 | -13.17055 | -38.86818 | 19063 ft | 407 kts | 236° |
| 2026-04-30 18:52 | -13.18576 | -38.89275 | 19565 ft | 410 kts | 236° |
| 2026-04-30 18:52 | -13.20107 | -38.91760 | 20055 ft | 413 kts | 236° |
| 2026-04-30 18:52 | -13.21649 | -38.94268 | 20537 ft | 416 kts | 236° |
| 2026-04-30 18:52 | -13.23196 | -38.96789 | 21023 ft | 419 kts | 236° |
| 2026-04-30 18:53 | -13.24736 | -38.99299 | 21492 ft | 422 kts | 236° |
| 2026-04-30 18:53 | -13.26309 | -39.01864 | 21958 ft | 425 kts | 236° |
| 2026-04-30 18:53 | -13.27895 | -39.04452 | 22422 ft | 429 kts | 236° |
| 2026-04-30 18:53 | -13.29489 | -39.07052 | 22873 ft | 432 kts | 236° |
| 2026-04-30 18:54 | -13.31095 | -39.09673 | 23329 ft | 435 kts | 236° |
| 2026-04-30 18:54 | -13.32714 | -39.12316 | 23741 ft | 438 kts | 236° |
| 2026-04-30 18:54 | -13.34340 | -39.14971 | 24133 ft | 440 kts | 236° |
| 2026-04-30 18:54 | -13.35973 | -39.17639 | 24540 ft | 442 kts | 236° |
| 2026-04-30 18:55 | -13.37612 | -39.20317 | 24946 ft | 443 kts | 236° |
| 2026-04-30 18:55 | -13.40904 | -39.25697 | 25718 ft | 447 kts | 236° |
| 2026-04-30 18:55 | -13.42558 | -39.28402 | 26094 ft | 449 kts | 236° |
| 2026-04-30 18:56 | -13.46261 | -39.33498 | 26793 ft | 448 kts | 217° |
| 2026-04-30 18:56 | -13.48752 | -39.35418 | 27192 ft | 448 kts | 213° |
| 2026-04-30 18:56 | -13.51291 | -39.37276 | 27562 ft | 449 kts | 213° |
| 2026-04-30 18:57 | -13.56424 | -39.41004 | 28232 ft | 454 kts | 213° |
| 2026-04-30 18:57 | -13.59000 | -39.42896 | 28586 ft | 456 kts | 213° |
| 2026-04-30 18:57 | -13.61577 | -39.44807 | 28913 ft | 457 kts | 214° |
| 2026-04-30 18:58 | -13.65904 | -39.48039 | 29408 ft | 461 kts | 214° |
| 2026-04-30 18:58 | -13.68472 | -39.49964 | 29666 ft | 463 kts | 214° |
| 2026-04-30 18:58 | -13.71086 | -39.51926 | 29939 ft | 465 kts | 214° |
| 2026-04-30 18:59 | -13.76338 | -39.55871 | 30401 ft | 469 kts | 214° |
| 2026-04-30 19:00 | -13.84270 | -39.61828 | 31099 ft | 472 kts | 214° |
| 2026-04-30 19:00 | -13.86922 | -39.63820 | 31330 ft | 472 kts | 214° |
| 2026-04-30 19:00 | -13.92229 | -39.67809 | 31800 ft | 471 kts | 214° |
| 2026-04-30 19:01 | -13.97519 | -39.71788 | 32263 ft | 469 kts | 214° |
| 2026-04-30 19:01 | -14.00145 | -39.73764 | 32506 ft | 467 kts | 214° |
| 2026-04-30 19:02 | -14.05376 | -39.77702 | 32992 ft | 463 kts | 214° |
| 2026-04-30 19:02 | -14.10565 | -39.81610 | 33487 ft | 460 kts | 214° |
| 2026-04-30 19:03 | -14.15710 | -39.85487 | 33987 ft | 456 kts | 213° |
| 2026-04-30 19:03 | -14.20780 | -39.89309 | 34424 ft | 453 kts | 214° |
| 2026-04-30 19:04 | -14.25853 | -39.93136 | 34893 ft | 451 kts | 214° |
| 2026-04-30 19:04 | -14.30903 | -39.96948 | 35352 ft | 449 kts | 214° |
| 2026-04-30 19:05 | -14.35945 | -40.00756 | 35836 ft | 448 kts | 214° |
| 2026-04-30 19:05 | -14.40963 | -40.04548 | 36306 ft | 446 kts | 214° |
| 2026-04-30 19:06 | -14.45969 | -40.08333 | 36797 ft | 446 kts | 214° |
| 2026-04-30 19:06 | -14.48470 | -40.10225 | 37048 ft | 445 kts | 214° |
| 2026-04-30 19:06 | -14.53458 | -40.14002 | 37552 ft | 443 kts | 214° |
| 2026-04-30 19:07 | -14.58420 | -40.17759 | 38029 ft | 442 kts | 214° |
| 2026-04-30 19:07 | -14.60918 | -40.19650 | 38008 ft | 447 kts | 214° |
| 2026-04-30 19:08 | -14.70965 | -40.27265 | 38021 ft | 445 kts | 214° |
| 2026-04-30 19:09 | -14.78399 | -40.32908 | 38025 ft | 442 kts | 214° |
| 2026-04-30 19:09 | -14.83348 | -40.36667 | 38024 ft | 440 kts | 214° |
| 2026-04-30 19:10 | -14.93191 | -40.44151 | 38031 ft | 439 kts | 214° |
| 2026-04-30 19:11 | -15.00547 | -40.49748 | 38025 ft | 440 kts | 214° |
| 2026-04-30 19:12 | -15.05489 | -40.53512 | 38019 ft | 441 kts | 215° |
| 2026-04-30 19:12 | -15.10443 | -40.57287 | 38022 ft | 442 kts | 214° |
| 2026-04-30 19:13 | -15.20375 | -40.64862 | 38022 ft | 444 kts | 214° |
| 2026-04-30 19:14 | -15.25355 | -40.68664 | 38020 ft | 445 kts | 215° |
| 2026-04-30 19:14 | -15.30298 | -40.72440 | 38022 ft | 445 kts | 215° |
| 2026-04-30 19:15 | -15.35283 | -40.76250 | 38023 ft | 444 kts | 215° |
| 2026-04-30 19:15 | -15.42737 | -40.81952 | 38025 ft | 442 kts | 215° |
| 2026-04-30 19:16 | -15.47655 | -40.85718 | 38028 ft | 441 kts | 215° |
| 2026-04-30 19:17 | -15.55038 | -40.91373 | 38030 ft | 439 kts | 214° |
| 2026-04-30 19:17 | -15.62393 | -40.97013 | 38029 ft | 437 kts | 215° |
| 2026-04-30 19:18 | -15.69724 | -41.02639 | 38034 ft | 436 kts | 215° |
| 2026-04-30 19:19 | -15.74592 | -41.06379 | 38031 ft | 435 kts | 215° |
| 2026-04-30 19:19 | -15.81886 | -41.11985 | 38035 ft | 435 kts | 215° |
| 2026-04-30 19:20 | -15.86756 | -41.15732 | 38033 ft | 435 kts | 215° |
| 2026-04-30 19:21 | -15.94023 | -41.21327 | 38035 ft | 436 kts | 215° |
| 2026-04-30 19:22 | -16.03774 | -41.28843 | 38035 ft | 436 kts | 215° |
| 2026-04-30 19:23 | -16.18403 | -41.40144 | 38026 ft | 437 kts | 215° |
| 2026-04-30 19:24 | -16.25738 | -41.45819 | 38026 ft | 438 kts | 216° |
| 2026-04-30 19:25 | -16.37965 | -41.55290 | 38023 ft | 437 kts | 216° |
| 2026-04-30 19:26 | -16.47688 | -41.62832 | 38014 ft | 436 kts | 216° |
| 2026-04-30 19:27 | -16.54988 | -41.68501 | 38013 ft | 436 kts | 216° |
| 2026-04-30 19:28 | -16.62288 | -41.74176 | 38015 ft | 435 kts | 216° |
| 2026-04-30 19:29 | -16.72002 | -41.81737 | 38021 ft | 435 kts | 216° |
| 2026-04-30 19:30 | -16.81663 | -41.89266 | 38017 ft | 434 kts | 216° |
| 2026-04-30 19:31 | -16.91348 | -41.96821 | 38028 ft | 434 kts | 216° |
| 2026-04-30 19:31 | -16.98620 | -42.02496 | 38026 ft | 435 kts | 216° |
| 2026-04-30 19:32 | -17.03469 | -42.06285 | 38025 ft | 435 kts | 216° |
| 2026-04-30 19:32 | -17.08285 | -42.10047 | 38017 ft | 435 kts | 217° |
| 2026-04-30 19:33 | -17.13139 | -42.13845 | 38013 ft | 435 kts | 217° |
| 2026-04-30 19:33 | -17.17974 | -42.17634 | 38027 ft | 434 kts | 217° |
| 2026-04-30 19:34 | -17.22816 | -42.21429 | 38027 ft | 434 kts | 217° |
| 2026-04-30 19:35 | -17.30071 | -42.27119 | 38032 ft | 434 kts | 217° |
| 2026-04-30 19:35 | -17.34906 | -42.30914 | 38037 ft | 434 kts | 217° |
| 2026-04-30 19:36 | -17.39711 | -42.34687 | 38031 ft | 434 kts | 217° |
| 2026-04-30 19:36 | -17.46969 | -42.40390 | 38059 ft | 434 kts | 217° |
| 2026-04-30 19:37 | -17.51798 | -42.44191 | 38041 ft | 434 kts | 217° |
| 2026-04-30 19:37 | -17.56606 | -42.47977 | 38044 ft | 434 kts | 217° |
| 2026-04-30 19:38 | -17.61435 | -42.51782 | 38044 ft | 434 kts | 217° |
| 2026-04-30 19:38 | -17.66261 | -42.55587 | 38045 ft | 434 kts | 217° |
| 2026-04-30 19:39 | -17.71087 | -42.59394 | 38060 ft | 434 kts | 217° |
| 2026-04-30 19:39 | -17.75912 | -42.63203 | 38006 ft | 435 kts | 217° |
| 2026-04-30 19:40 | -17.78347 | -42.65127 | 37528 ft | 439 kts | 217° |
| 2026-04-30 19:40 | -17.80769 | -42.67039 | 37138 ft | 433 kts | 217° |
| 2026-04-30 19:40 | -17.83163 | -42.68930 | 36727 ft | 429 kts | 217° |
| 2026-04-30 19:40 | -17.85536 | -42.70807 | 36332 ft | 425 kts | 217° |
| 2026-04-30 19:41 | -17.87887 | -42.72667 | 35939 ft | 421 kts | 217° |
| 2026-04-30 19:41 | -17.90222 | -42.74515 | 35544 ft | 418 kts | 217° |
| 2026-04-30 19:41 | -17.92542 | -42.76350 | 35139 ft | 416 kts | 217° |
| 2026-04-30 19:41 | -17.94846 | -42.78175 | 34741 ft | 413 kts | 217° |
| 2026-04-30 19:42 | -17.97109 | -42.79968 | 34337 ft | 411 kts | 217° |
| 2026-04-30 19:42 | -17.99391 | -42.81776 | 33914 ft | 410 kts | 217° |
| 2026-04-30 19:42 | -18.01664 | -42.83578 | 33484 ft | 407 kts | 217° |
| 2026-04-30 19:42 | -18.03916 | -42.85363 | 33070 ft | 405 kts | 217° |
| 2026-04-30 19:43 | -18.06159 | -42.87142 | 32668 ft | 402 kts | 217° |
| 2026-04-30 19:43 | -18.08391 | -42.88912 | 32277 ft | 400 kts | 217° |
| 2026-04-30 19:43 | -18.09860 | -42.90078 | 32011 ft | 398 kts | 217° |
| 2026-04-30 19:44 | -18.14977 | -42.94140 | 31133 ft | 394 kts | 217° |
| 2026-04-30 19:44 | -18.17170 | -42.95881 | 30734 ft | 393 kts | 217° |
| 2026-04-30 19:44 | -18.19345 | -42.97608 | 30348 ft | 392 kts | 217° |
| 2026-04-30 19:44 | -18.20788 | -42.98754 | 30085 ft | 392 kts | 217° |
| 2026-04-30 19:45 | -18.22956 | -43.00479 | 29659 ft | 390 kts | 217° |
| 2026-04-30 19:45 | -18.25110 | -43.02194 | 29254 ft | 387 kts | 217° |
| 2026-04-30 19:45 | -18.27255 | -43.03901 | 28844 ft | 385 kts | 217° |
| 2026-04-30 19:45 | -18.29385 | -43.05597 | 28447 ft | 383 kts | 217° |
| 2026-04-30 19:46 | -18.31502 | -43.07284 | 28058 ft | 380 kts | 217° |
| 2026-04-30 19:46 | -18.33609 | -43.08961 | 27674 ft | 378 kts | 217° |
| 2026-04-30 19:46 | -18.35699 | -43.10627 | 27290 ft | 376 kts | 217° |
| 2026-04-30 19:46 | -18.37782 | -43.12286 | 26910 ft | 374 kts | 217° |
| 2026-04-30 19:47 | -18.39854 | -43.13935 | 26528 ft | 373 kts | 217° |
| 2026-04-30 19:47 | -18.41226 | -43.15022 | 26281 ft | 372 kts | 217° |
| 2026-04-30 19:47 | -18.43989 | -43.17208 | 25767 ft | 370 kts | 217° |
| 2026-04-30 19:47 | -18.46049 | -43.18836 | 25377 ft | 370 kts | 217° |
| 2026-04-30 19:48 | -18.48104 | -43.20462 | 24996 ft | 369 kts | 217° |
| 2026-04-30 19:48 | -18.50155 | -43.22087 | 24614 ft | 369 kts | 217° |
| 2026-04-30 19:48 | -18.52206 | -43.23711 | 24234 ft | 368 kts | 217° |
| 2026-04-30 19:48 | -18.54226 | -43.25313 | 23857 ft | 368 kts | 217° |
| 2026-04-30 19:49 | -18.56271 | -43.26934 | 23453 ft | 368 kts | 217° |
| 2026-04-30 19:49 | -18.60340 | -43.30163 | 22658 ft | 364 kts | 217° |
| 2026-04-30 19:49 | -18.62360 | -43.31767 | 22280 ft | 362 kts | 217° |
| 2026-04-30 19:50 | -18.64365 | -43.33359 | 21913 ft | 360 kts | 217° |
| 2026-04-30 19:50 | -18.66360 | -43.34944 | 21549 ft | 358 kts | 217° |
| 2026-04-30 19:50 | -18.68343 | -43.36519 | 21186 ft | 356 kts | 217° |
| 2026-04-30 19:50 | -18.70309 | -43.38082 | 20831 ft | 353 kts | 217° |
| 2026-04-30 19:51 | -18.72274 | -43.39645 | 20477 ft | 352 kts | 217° |
| 2026-04-30 19:51 | -18.74226 | -43.41197 | 20124 ft | 350 kts | 217° |
| 2026-04-30 19:51 | -18.76166 | -43.42741 | 19770 ft | 348 kts | 217° |
| 2026-04-30 19:51 | -18.78099 | -43.44279 | 19419 ft | 347 kts | 217° |
| 2026-04-30 19:52 | -18.80022 | -43.45810 | 19067 ft | 346 kts | 217° |
| 2026-04-30 19:52 | -18.81939 | -43.47336 | 18713 ft | 345 kts | 217° |
| 2026-04-30 19:52 | -18.83855 | -43.48862 | 18349 ft | 344 kts | 217° |
| 2026-04-30 19:52 | -18.85761 | -43.50381 | 17967 ft | 342 kts | 217° |
| 2026-04-30 19:53 | -18.87655 | -43.51891 | 17590 ft | 340 kts | 217° |
| 2026-04-30 19:53 | -18.89515 | -43.53373 | 17242 ft | 338 kts | 217° |
| 2026-04-30 19:53 | -18.91381 | -43.54862 | 16894 ft | 335 kts | 217° |
| 2026-04-30 19:53 | -18.93239 | -43.56345 | 16545 ft | 333 kts | 216° |
| 2026-04-30 19:54 | -18.95082 | -43.57816 | 16207 ft | 331 kts | 216° |
| 2026-04-30 19:54 | -18.96914 | -43.59278 | 15870 ft | 329 kts | 216° |
| 2026-04-30 19:54 | -18.98737 | -43.60733 | 15524 ft | 327 kts | 216° |
| 2026-04-30 19:54 | -19.00550 | -43.62180 | 15187 ft | 326 kts | 216° |
| 2026-04-30 19:55 | -19.02359 | -43.63618 | 14862 ft | 325 kts | 216° |
| 2026-04-30 19:55 | -19.04166 | -43.65041 | 14539 ft | 323 kts | 216° |
| 2026-04-30 19:55 | -19.05962 | -43.66452 | 14214 ft | 321 kts | 215° |
| 2026-04-30 19:55 | -19.07751 | -43.67856 | 13905 ft | 319 kts | 215° |
| 2026-04-30 19:56 | -19.09533 | -43.69257 | 13553 ft | 318 kts | 215° |
| 2026-04-30 19:56 | -19.11302 | -43.70650 | 13221 ft | 315 kts | 215° |
| 2026-04-30 19:56 | -19.13051 | -43.72027 | 12907 ft | 312 kts | 215° |
| 2026-04-30 19:56 | -19.14791 | -43.73398 | 12604 ft | 310 kts | 216° |
| 2026-04-30 19:57 | -19.16495 | -43.74742 | 12296 ft | 308 kts | 215° |
| 2026-04-30 19:57 | -19.18203 | -43.76090 | 12002 ft | 306 kts | 215° |
| 2026-04-30 19:57 | -19.19903 | -43.77431 | 11704 ft | 304 kts | 215° |
| 2026-04-30 19:57 | -19.21594 | -43.78765 | 11414 ft | 302 kts | 215° |
| 2026-04-30 19:58 | -19.23281 | -43.80097 | 11117 ft | 301 kts | 216° |
| 2026-04-30 19:58 | -19.24961 | -43.81424 | 10818 ft | 300 kts | 215° |
| 2026-04-30 19:58 | -19.26533 | -43.82732 | 10536 ft | 300 kts | 221° |
| 2026-04-30 19:58 | -19.28006 | -43.84294 | 10243 ft | 299 kts | 226° |
| 2026-04-30 19:59 | -19.29410 | -43.85914 | 9958 ft | 298 kts | 226° |
| 2026-04-30 19:59 | -19.30811 | -43.87544 | 9598 ft | 299 kts | 226° |
| 2026-04-30 19:59 | -19.33613 | -43.90753 | 9011 ft | 294 kts | 226° |
| 2026-04-30 20:00 | -19.34987 | -43.92308 | 8755 ft | 292 kts | 225° |
| 2026-04-30 20:00 | -19.36378 | -43.93877 | 8452 ft | 290 kts | 225° |
| 2026-04-30 20:00 | -19.37761 | -43.95431 | 8169 ft | 289 kts | 225° |
| 2026-04-30 20:00 | -19.39126 | -43.96962 | 7885 ft | 283 kts | 225° |
| 2026-04-30 20:01 | -19.41769 | -43.99927 | 7268 ft | 272 kts | 226° |
| 2026-04-30 20:01 | -19.43057 | -44.01372 | 6986 ft | 266 kts | 225° |
| 2026-04-30 20:01 | -19.44288 | -44.02818 | 6674 ft | 262 kts | 227° |
| 2026-04-30 20:02 | -19.46628 | -44.05659 | 6171 ft | 249 kts | 227° |
| 2026-04-30 20:02 | -19.47766 | -44.07029 | 5917 ft | 247 kts | 225° |
| 2026-04-30 20:03 | -19.50767 | -44.07973 | 5425 ft | 229 kts | 162° |
| 2026-04-30 20:03 | -19.52186 | -44.07242 | 5197 ft | 223 kts | 142° |
| 2026-04-30 20:03 | -19.53352 | -44.06220 | 4978 ft | 218 kts | 136° |
| 2026-04-30 20:03 | -19.54466 | -44.05169 | 4750 ft | 211 kts | 136° |
| 2026-04-30 20:04 | -19.55543 | -44.04159 | 4513 ft | 201 kts | 136° |
| 2026-04-30 20:04 | -19.56559 | -44.03188 | 4201 ft | 193 kts | 135° |
| 2026-04-30 20:04 | -19.57538 | -44.02278 | 4030 ft | 181 kts | 137° |
| 2026-04-30 20:05 | -19.59373 | -44.00603 | 3590 ft | 167 kts | 135° |
| 2026-04-30 20:05 | -19.60192 | -43.99815 | 3361 ft | 152 kts | 136° |
| 2026-04-30 20:05 | -19.61737 | -43.98381 | 3036 ft | 149 kts | 136° |
| 2026-04-30 20:06 | -19.62500 | -43.97680 | 2837 ft | 143 kts | 138° |
| 2026-04-30 20:06 | -19.63159 | -43.97074 | 2825 ft | 98 kts | 139° |
| 2026-04-30 20:06 | -19.63479 | -43.96772 | 2821 ft | 32 kts | 138° |
| 2026-04-30 20:06 | -19.63572 | -43.96645 | 2823 ft | 21 kts | 114° |
| 2026-04-30 20:07 | -19.63605 | -43.96544 | 2822 ft | 12 kts | 109° |
| 2026-04-30 20:07 | -19.63631 | -43.96465 | 2823 ft | 11 kts | 109° |
| 2026-04-30 20:07 | -19.63578 | -43.96340 | 2823 ft | 11 kts | 28° |
| 2026-04-30 20:08 | -19.63514 | -43.96303 | 2825 ft | 10 kts | 28° |
| 2026-04-30 20:08 | -19.63456 | -43.96299 | 2824 ft | 9 kts | 314° |
| 2026-04-30 20:08 | -19.63424 | -43.96357 | 2823 ft | 9 kts | 297° |
| 2026-04-30 20:08 | -19.63391 | -43.96422 | 2823 ft | 11 kts | 304° |
| 2026-04-30 20:09 | -19.63334 | -43.96482 | 2823 ft | 12 kts | 319° |
| 2026-04-30 20:09 | -19.63270 | -43.96541 | 2823 ft | 11 kts | 319° |
| 2026-04-30 20:09 | -19.63139 | -43.96661 | 2823 ft | 14 kts | 319° |
| 2026-04-30 20:10 | -19.63002 | -43.96784 | 2823 ft | 11 kts | 320° |
| 2026-04-30 20:10 | -19.62968 | -43.96806 | 2823 ft | 4 kts | 351° |
| 2026-04-30 20:10 | -19.62945 | -43.96791 | 2823 ft | 4 kts | 45° |
| 2026-04-30 20:11 | -19.62916 | -43.96755 | 2821 ft | 1 kts | 50° |
| 2026-04-30 20:11 | -19.62915 | -43.96754 | 2821 ft | 0 kts | 50° |